Walls, MS (38680)

12:45 PM CST on December 27, 2014 (GMT -0600)
Skyler Estates | Change Station
CLOSE
Current Station
Personal Weather Station
Location: Southaven, MS
Elevation: 375 ft
Nearby Weather Stations

Elev 375 ft 34.91 °N, 89.98 °W | Updated 6 minutes ago

Overcast
Overcast
53.8 °F
Feels Like 53.8 °F
N
2.0
Wind Variable Wind from SE
Gusts 5.0 mph

Today
High -- | Low -- °F
--% Chance of Precip.
Yesterday
High -- | Low -- °F
Precip. -- in
7:07 AM 4:56 PM
Waxing Crescent, 39% visible
Pressure 30.11 in
Visibility 10.0 miles
Clouds Overcast 700 ft
Dew Point 52 °F
Humidity 95%
Rainfall 0.15 in
Snow Depth Not available.
UV 0.0 out of 12
Pollen .10 out of 12
Air Quality Not available.
Flu Activity Not available.
METAR KMEM 271754Z 14004KT 10SM OVC007 13/11 A3011 RMK AO2 RAE24 SLP195 P0000 60009 T01280111 10133 20128 58008

More Conditions Fewer Conditions

Pressure 30.11 in
Visibility 10.0 miles
Clouds Overcast 700 ft
Dew Point 52 °F
Humidity 95%
Rainfall 0.15 in
Snow Depth Not available.
UV 0.0 out of 12
Pollen .10 out of 12
Air Quality Not available.
Flu Activity Not available.
METAR KMEM 271754Z 14004KT 10SM OVC007 13/11 A3011 RMK AO2 RAE24 SLP195 P0000 60009 T01280111 10133 20128 58008

More Conditions Fewer Conditions

10-Day Weather Forecast

Almanac

Astronomy

Dec. 27, 2014 Rise Set
Actual Time
Civil Twilight
Nautical Twilight
Astronomical Twilight
Moon
Length of Visible Light
Length of Day
Tomorrow will be .
, % of the Moon is Illuminated

Today's Extremes

State Highs State Lows

Community

WunderPhotos

Upload Photos

1,780,988 photos uploaded!

WunderBlogs® & News

Nearby

Air Quality

  Air Quality AQ Index Pollutant
Not available.

Snow Depth

Station Depth Elevation

Earthquake Activity

City Distance Mag. Time & Date
Minimum magnitude displayed is 2.5.

Coastal Water Temperatures

Place Temperature

Nearby Weather Stations